createdAt,value
2022-09-23T00:01:22.253Z,62.84
2022-09-23T00:03:50.691Z,62.77
2022-09-23T00:06:24.419Z,63.20
2022-09-23T00:08:52.657Z,63.01
2022-09-23T00:11:26.706Z,63.34
2022-09-23T00:13:57.503Z,63.47
2022-09-23T00:16:28.907Z,63.39
2022-09-23T00:19:05.853Z,63.59
2022-09-23T00:21:40.503Z,63.85
2022-09-23T00:24:08.932Z,63.53
2022-09-23T00:26:36.952Z,64.05
2022-09-23T00:29:04.897Z,63.66
2022-09-23T00:31:32.990Z,63.77
2022-09-23T00:34:19.158Z,63.97
2022-09-23T00:36:47.457Z,64.32
2022-09-23T00:39:25.113Z,64.13
2022-09-23T00:41:53.565Z,64.35
2022-09-23T00:44:47.314Z,64.02
2022-09-23T00:47:41.404Z,64.35
2022-09-23T00:50:10.296Z,64.38
2022-09-23T00:52:44.627Z,64.30
2022-09-23T00:55:18.827Z,64.23
2022-09-23T00:57:48.234Z,63.79
2022-09-23T01:00:16.999Z,63.82
2022-09-23T01:02:49.557Z,64.05
2022-09-23T01:05:18.887Z,63.93
2022-09-23T01:07:50.589Z,63.71
2022-09-23T01:10:19.084Z,64.02
2022-09-23T01:13:06.357Z,63.88
2022-09-23T01:16:12.383Z,64.02
2022-09-23T01:18:40.341Z,64.04
2022-09-23T01:21:20.135Z,63.87
2022-09-23T01:24:08.469Z,63.88
2022-09-23T01:26:57.402Z,64.23
2022-09-23T01:30:02.909Z,64.02
2022-09-23T01:32:39.657Z,64.19
2022-09-23T01:35:39.133Z,64.82
2022-09-23T01:38:22.789Z,64.41
2022-09-23T01:41:14.739Z,64.79
2022-09-23T01:43:52.393Z,64.60
2022-09-23T01:46:28.765Z,64.97
2022-09-23T01:49:10.043Z,64.82
2022-09-23T01:51:46.803Z,65.00
2022-09-23T01:54:24.050Z,64.90
2022-09-23T01:57:14.234Z,65.13
2022-09-23T01:59:51.139Z,64.81
2022-09-23T02:02:53.853Z,64.80
2022-09-23T02:05:46.468Z,64.66
2022-09-23T02:08:43.418Z,65.16
2022-09-23T02:11:16.443Z,64.64
2022-09-23T02:14:10.750Z,64.86
2022-09-23T02:16:49.541Z,64.80
2022-09-23T02:19:25.148Z,64.77
2022-09-23T02:22:40.478Z,65.05
2022-09-23T02:25:10.298Z,65.18
2022-09-23T02:28:10.286Z,65.10
2022-09-23T02:31:12.325Z,65.40
2022-09-23T02:34:52.598Z,65.72
2022-09-23T02:38:06.700Z,65.87
2022-09-23T02:41:06.180Z,65.92
2022-09-23T02:44:16.756Z,66.38
2022-09-23T02:47:14.075Z,66.37
2022-09-23T02:50:05.633Z,67.03
2022-09-23T02:52:55.320Z,66.70
2022-09-23T02:55:52.663Z,66.92
2022-09-23T02:58:41.712Z,66.90
2022-09-23T03:01:48.673Z,67.10
2022-09-23T03:05:00.494Z,67.34
2022-09-23T03:08:27.836Z,67.32
2022-09-23T03:11:10.209Z,67.27
2022-09-23T03:14:23.815Z,67.15
2022-09-23T03:17:17.011Z,66.86
2022-09-23T03:20:00.545Z,66.84
2022-09-23T03:22:34.131Z,66.94
2022-09-23T03:25:09.987Z,67.08
2022-09-23T03:27:39.688Z,67.25
2022-09-23T03:30:09.714Z,66.94
2022-09-23T03:32:39.539Z,66.99
2022-09-23T03:35:09.577Z,66.85
2022-09-23T03:38:00.505Z,66.67
2022-09-23T03:40:44.117Z,66.59
2022-09-23T03:43:14.328Z,66.35
2022-09-23T03:45:43.174Z,66.28
2022-09-23T03:48:11.775Z,66.59
2022-09-23T03:50:40.254Z,66.37
2022-09-23T03:53:08.538Z,66.73
2022-09-23T03:55:39.897Z,66.67
2022-09-23T03:58:08.800Z,66.73
2022-09-23T04:00:37.333Z,66.61
2022-09-23T04:03:10.880Z,66.51
2022-09-23T04:05:39.436Z,66.18
2022-09-23T04:08:07.623Z,66.49
2022-09-23T04:10:36.303Z,66.54
2022-09-23T04:13:04.074Z,66.62
2022-09-23T04:15:33.063Z,66.56
2022-09-23T04:18:01.095Z,66.44
2022-09-23T04:20:29.943Z,66.51
2022-09-23T04:22:57.793Z,66.69
2022-09-23T04:25:25.247Z,66.61
2022-09-23T04:27:53.695Z,66.38
2022-09-23T04:30:21.909Z,66.49
2022-09-23T04:32:53.555Z,66.50
2022-09-23T04:35:21.245Z,66.52
2022-09-23T04:37:49.611Z,66.82
2022-09-23T04:40:17.827Z,66.75
2022-09-23T04:42:48.618Z,67.03
2022-09-23T04:45:16.824Z,67.21
2022-09-23T04:47:45.385Z,67.20
2022-09-23T04:50:13.293Z,67.13
2022-09-23T04:52:41.451Z,67.30
2022-09-23T04:55:11.331Z,66.98
2022-09-23T04:57:39.822Z,66.66
2022-09-23T05:00:09.116Z,66.80
2022-09-23T05:02:44.659Z,67.01
2022-09-23T05:05:14.499Z,67.30
2022-09-23T05:07:43.421Z,66.92
2022-09-23T05:10:11.010Z,67.17
2022-09-23T05:12:44.505Z,67.15
2022-09-23T05:15:13.880Z,67.17
2022-09-23T05:17:43.489Z,67.06
2022-09-23T05:20:12.338Z,66.79
2022-09-23T05:22:40.322Z,67.36
2022-09-23T05:25:09.745Z,67.58
2022-09-23T05:27:37.527Z,67.61
2022-09-23T05:30:06.312Z,67.76
2022-09-23T05:32:33.990Z,67.82
2022-09-23T05:35:08.355Z,67.99
2022-09-23T05:37:36.254Z,67.80
2022-09-23T05:40:04.761Z,68.12
2022-09-23T05:42:32.908Z,68.38
2022-09-23T05:45:00.724Z,68.39
2022-09-23T05:47:29.623Z,68.21
2022-09-23T05:50:00.319Z,67.91
2022-09-23T05:52:28.835Z,68.08
2022-09-23T05:54:56.425Z,67.78
2022-09-23T05:57:24.914Z,67.56
2022-09-23T05:59:52.683Z,67.50
2022-09-23T06:02:20.647Z,67.22
2022-09-23T06:04:50.844Z,67.11
2022-09-23T06:07:21.456Z,66.99
2022-09-23T06:09:49.561Z,67.01
2022-09-23T06:12:18.743Z,66.89
2022-09-23T06:14:46.921Z,66.41
2022-09-23T06:17:14.610Z,66.41
2022-09-23T06:19:48.774Z,66.10
2022-09-23T06:22:18.263Z,66.16
2022-09-23T06:24:45.871Z,65.78
2022-09-23T06:27:14.342Z,65.67
2022-09-23T06:29:42.267Z,66.23
2022-09-23T06:32:09.824Z,66.01
2022-09-23T06:34:50.408Z,66.00
2022-09-23T06:37:21.460Z,66.17
2022-09-23T06:39:55.437Z,66.08
2022-09-23T06:42:23.463Z,66.37
2022-09-23T06:44:50.892Z,66.30
2022-09-23T06:47:19.242Z,66.06
2022-09-23T06:49:46.661Z,65.93
2022-09-23T06:52:14.239Z,65.91
2022-09-23T06:54:42.469Z,65.82
2022-09-23T06:57:10.597Z,65.88
2022-09-23T06:59:38.715Z,65.49
2022-09-23T07:02:07.959Z,65.55
2022-09-23T07:04:35.750Z,65.31
2022-09-23T07:07:04.072Z,64.99
2022-09-23T07:09:37.777Z,64.66
2022-09-23T07:12:05.925Z,64.65
2022-09-23T07:14:35.428Z,63.79
2022-09-23T07:17:04.130Z,63.83
2022-09-23T07:19:32.290Z,63.40
2022-09-23T07:21:59.965Z,63.20
2022-09-23T07:24:28.313Z,62.93
2022-09-23T07:26:56.150Z,62.79
2022-09-23T07:29:24.038Z,62.58
2022-09-23T07:31:52.368Z,62.01
2022-09-23T07:34:21.029Z,61.70
2022-09-23T07:36:48.862Z,61.69
2022-09-23T07:39:16.835Z,61.53
2022-09-23T07:41:44.916Z,62.04
2022-09-23T07:44:12.925Z,62.74
2022-09-23T07:46:40.885Z,63.84
2022-09-23T07:49:08.613Z,60.58
2022-09-23T07:51:38.661Z,60.54
2022-09-23T07:54:14.408Z,59.90
2022-09-23T07:56:43.690Z,59.24
2022-09-23T07:59:18.504Z,60.52
2022-09-23T08:01:53.122Z,58.98
2022-09-23T08:04:29.026Z,59.64
2022-09-23T08:07:03.210Z,59.07
2022-09-23T08:09:41.882Z,57.74
2022-09-23T08:12:17.460Z,58.51
2022-09-23T08:14:46.222Z,58.62
2022-09-23T08:17:14.542Z,57.15
2022-09-23T08:19:42.429Z,57.51
2022-09-23T08:22:09.931Z,56.85
2022-09-23T08:24:37.873Z,58.19
2022-09-23T08:27:05.420Z,56.18
2022-09-23T08:29:32.989Z,55.76
2022-09-23T08:32:00.744Z,56.23
2022-09-23T08:34:29.225Z,55.80
2022-09-23T08:36:57.587Z,55.46
2022-09-23T08:39:25.615Z,55.49
2022-09-23T08:41:58.224Z,55.43
2022-09-23T08:44:30.773Z,55.69
2022-09-23T08:47:07.309Z,55.32
2022-09-23T08:50:07.097Z,55.65
2022-09-23T08:52:59.110Z,55.59
2022-09-23T08:55:31.701Z,55.78
2022-09-23T08:58:24.511Z,55.33
2022-09-23T09:01:20.789Z,55.42
2022-09-23T09:03:49.066Z,54.95
2022-09-23T09:06:23.508Z,54.93
2022-09-23T09:08:58.209Z,54.54
2022-09-23T09:11:49.994Z,54.25
2022-09-23T09:14:44.380Z,53.88
2022-09-23T09:17:25.094Z,53.60
2022-09-23T09:19:59.726Z,54.27
2022-09-23T09:22:49.763Z,53.56
2022-09-23T09:25:45.820Z,54.01
2022-09-23T09:28:23.489Z,54.28
2022-09-23T09:30:59.958Z,54.12
2022-09-23T09:33:48.600Z,55.19
2022-09-23T09:36:30.864Z,55.88
2022-09-23T09:39:02.120Z,55.70
2022-09-23T09:41:32.108Z,55.88
2022-09-23T09:44:10.084Z,56.08
2022-09-23T09:47:29.108Z,56.70
2022-09-23T09:50:08.117Z,56.58
2022-09-23T09:52:40.360Z,56.14
2022-09-23T09:55:13.745Z,56.16
2022-09-23T09:57:48.899Z,56.06
2022-09-23T10:00:22.494Z,55.79
2022-09-23T10:02:54.810Z,55.89
2022-09-23T10:05:45.632Z,55.96
2022-09-23T10:08:19.144Z,56.48
2022-09-23T10:11:16.757Z,56.25
2022-09-23T10:14:11.357Z,56.01
2022-09-23T10:16:40.368Z,56.28
2022-09-23T10:19:26.538Z,55.74
2022-09-23T10:22:00.395Z,55.95
2022-09-23T10:24:33.027Z,56.15
2022-09-23T10:27:04.650Z,56.73
2022-09-23T10:29:49.486Z,56.30
2022-09-23T10:32:43.674Z,56.74
2022-09-23T10:35:13.645Z,56.39
2022-09-23T10:37:45.170Z,56.65
2022-09-23T10:40:43.086Z,56.47
2022-09-23T10:44:17.506Z,56.35
2022-09-23T10:46:58.034Z,56.67
2022-09-23T10:49:41.362Z,56.96
2022-09-23T10:52:33.046Z,57.23
2022-09-23T10:55:47.036Z,56.90
2022-09-23T10:58:27.295Z,56.69
2022-09-23T11:01:26.238Z,56.77
2022-09-23T11:04:35.612Z,56.41
2022-09-23T11:07:35.029Z,56.32
2022-09-23T11:10:47.673Z,56.89
2022-09-23T11:13:44.178Z,56.41
2022-09-23T11:16:42.262Z,56.34
2022-09-23T11:19:32.877Z,56.46
2022-09-23T11:22:23.925Z,56.53
2022-09-23T11:25:19.204Z,55.67
2022-09-23T11:27:46.397Z,55.83
2022-09-23T11:30:20.457Z,56.07
2022-09-23T11:33:13.693Z,55.63
2022-09-23T11:35:51.712Z,55.86
2022-09-23T11:38:26.797Z,55.96
2022-09-23T11:41:03.012Z,56.18
2022-09-23T11:43:40.160Z,55.97
2022-09-23T11:46:24.054Z,56.58
2022-09-23T11:49:18.920Z,57.27
2022-09-23T11:52:14.113Z,56.96
2022-09-23T11:54:47.210Z,56.97
2022-09-23T11:57:47.843Z,56.68
2022-09-23T12:00:16.600Z,55.77
2022-09-23T12:03:05.430Z,55.64
2022-09-23T12:05:45.015Z,54.93
2022-09-23T12:08:37.374Z,54.67
2022-09-23T12:11:16.696Z,54.49
2022-09-23T12:13:53.452Z,54.19
2022-09-23T12:16:49.716Z,53.81
2022-09-23T12:19:23.267Z,54.32
2022-09-23T12:21:51.545Z,54.66
2022-09-23T12:24:56.243Z,54.38
2022-09-23T12:27:55.526Z,54.82
2022-09-23T12:30:27.609Z,55.06
2022-09-23T12:33:28.420Z,55.09
2022-09-23T12:36:08.967Z,55.25
2022-09-23T12:39:04.843Z,55.23
2022-09-23T12:41:44.928Z,55.31
2022-09-23T12:44:31.979Z,54.94
2022-09-23T12:47:29.524Z,54.66
2022-09-23T12:49:57.607Z,54.55
2022-09-23T12:52:28.060Z,54.29
2022-09-23T12:55:17.243Z,53.59
2022-09-23T12:57:45.042Z,53.16
2022-09-23T13:00:34.163Z,53.41
2022-09-23T13:03:21.049Z,53.42
2022-09-23T13:06:11.855Z,54.12
2022-09-23T13:08:43.900Z,54.29
2022-09-23T13:11:32.177Z,54.27
2022-09-23T13:14:05.294Z,53.82
2022-09-23T13:16:51.644Z,53.30
2022-09-23T13:19:38.687Z,53.88
2022-09-23T13:22:14.210Z,53.11
2022-09-23T13:24:52.618Z,52.88
2022-09-23T13:27:31.731Z,53.39
2022-09-23T13:30:08.108Z,52.67
2022-09-23T13:32:46.407Z,53.13
2022-09-23T13:35:14.718Z,52.64
2022-09-23T13:37:51.146Z,53.17
2022-09-23T13:40:28.964Z,52.92
2022-09-23T13:43:28.811Z,51.95
2022-09-23T13:45:56.523Z,51.79
2022-09-23T13:48:27.358Z,51.41
2022-09-23T13:50:56.535Z,51.41
2022-09-23T13:53:33.021Z,50.66
2022-09-23T13:56:14.993Z,51.17
2022-09-23T13:58:44.662Z,51.12
2022-09-23T14:01:43.090Z,50.51
2022-09-23T14:04:24.818Z,50.90
2022-09-23T14:06:53.702Z,51.04
2022-09-23T14:09:27.786Z,50.83
2022-09-23T14:11:59.805Z,50.84
2022-09-23T14:14:30.691Z,50.85
2022-09-23T14:16:59.677Z,50.76
2022-09-23T14:19:27.583Z,50.47
2022-09-23T14:21:56.939Z,50.55
2022-09-23T14:24:32.312Z,51.17
2022-09-23T14:27:02.522Z,51.04
2022-09-23T14:29:42.819Z,51.04
2022-09-23T14:32:26.300Z,51.13
2022-09-23T14:35:18.767Z,51.13
2022-09-23T14:38:10.661Z,51.60
2022-09-23T14:41:18.532Z,51.35
2022-09-23T14:43:51.632Z,52.30
2022-09-23T14:46:21.687Z,52.28
2022-09-23T14:49:20.900Z,52.82
2022-09-23T14:52:08.139Z,52.17
2022-09-23T14:54:40.188Z,52.30
2022-09-23T14:57:26.619Z,52.80
2022-09-23T15:00:16.603Z,52.71
2022-09-23T15:02:46.292Z,52.91
2022-09-23T15:05:31.494Z,53.40
2022-09-23T15:08:02.599Z,53.97
2022-09-23T15:10:37.958Z,54.07
2022-09-23T15:13:13.394Z,54.14
2022-09-23T15:15:44.442Z,53.53
2022-09-23T15:18:30.334Z,52.77
2022-09-23T15:21:12.510Z,53.21
2022-09-23T15:23:57.900Z,53.00
2022-09-23T15:26:49.266Z,53.71
2022-09-23T15:29:17.588Z,53.67
2022-09-23T15:31:45.636Z,54.02
2022-09-23T15:34:19.507Z,54.57
2022-09-23T15:36:47.644Z,54.35
2022-09-23T15:39:15.601Z,54.36
2022-09-23T15:41:43.798Z,54.67
2022-09-23T15:44:21.891Z,54.58
2022-09-23T15:46:56.135Z,54.70
2022-09-23T15:49:34.755Z,54.57
2022-09-23T15:52:09.821Z,54.23
2022-09-23T15:54:38.501Z,54.44
2022-09-23T15:57:06.018Z,54.48
2022-09-23T15:59:34.617Z,54.85
2022-09-23T16:02:15.297Z,54.92
2022-09-23T16:04:42.877Z,55.46
2022-09-23T16:07:17.384Z,55.35
2022-09-23T16:09:45.464Z,55.48
2022-09-23T16:12:15.018Z,55.71
2022-09-23T16:14:43.144Z,55.97
2022-09-23T16:17:14.808Z,56.40
2022-09-23T16:19:57.704Z,56.10
2022-09-23T16:22:28.642Z,56.11
2022-09-23T16:25:11.119Z,56.36
2022-09-23T16:27:52.892Z,56.40
2022-09-23T16:30:34.295Z,56.34
2022-09-23T16:33:14.897Z,56.35
2022-09-23T16:35:42.602Z,57.04
2022-09-23T16:38:10.469Z,57.19
2022-09-23T16:40:47.318Z,57.28
2022-09-23T16:43:15.432Z,57.59
2022-09-23T16:45:43.193Z,57.55
2022-09-23T16:48:11.790Z,57.26
2022-09-23T16:50:45.013Z,57.27
2022-09-23T16:53:12.230Z,58.23
2022-09-23T16:55:41.256Z,57.61
2022-09-23T16:58:09.231Z,57.76
2022-09-23T17:01:04.703Z,57.34
2022-09-23T17:03:43.836Z,57.76
2022-09-23T17:06:13.717Z,57.32
2022-09-23T17:08:48.690Z,57.55
2022-09-23T17:11:17.353Z,57.39
2022-09-23T17:13:45.681Z,57.81
2022-09-23T17:16:29.616Z,58.34
2022-09-23T17:18:58.060Z,58.61
2022-09-23T17:21:27.639Z,58.62
2022-09-23T17:23:56.841Z,58.68
2022-09-23T17:26:25.982Z,58.75
2022-09-23T17:28:55.053Z,58.92
2022-09-23T17:31:24.637Z,58.80
2022-09-23T17:33:53.477Z,58.90
2022-09-23T17:36:21.628Z,59.44
2022-09-23T17:38:50.165Z,59.41
2022-09-23T17:41:18.976Z,59.64
2022-09-23T17:43:47.335Z,59.46
2022-09-23T17:46:18.422Z,59.74
2022-09-23T17:48:58.905Z,59.53
2022-09-23T17:51:37.027Z,59.98
2022-09-23T17:54:25.461Z,59.71
2022-09-23T17:56:58.193Z,60.01
2022-09-23T18:00:02.944Z,60.11
2022-09-23T18:03:07.135Z,60.15
2022-09-23T18:06:13.149Z,59.50
2022-09-23T18:09:09.605Z,59.97
2022-09-23T18:11:59.984Z,59.18
2022-09-23T18:14:42.596Z,59.60
2022-09-23T18:17:31.173Z,59.64
2022-09-23T18:20:39.837Z,59.62
2022-09-23T18:23:39.178Z,59.80
2022-09-23T18:26:30.268Z,59.85
2022-09-23T18:29:13.776Z,60.57
2022-09-23T18:32:21.338Z,61.76
2022-09-23T18:34:58.642Z,62.22
2022-09-23T18:37:41.897Z,63.20
2022-09-23T18:40:21.008Z,62.99
2022-09-23T18:42:56.597Z,63.70
2022-09-23T18:45:33.619Z,63.65
2022-09-23T18:48:26.121Z,64.02
2022-09-23T18:51:02.014Z,64.73
2022-09-23T18:53:33.144Z,64.37
2022-09-23T18:56:06.243Z,65.04
2022-09-23T18:58:36.638Z,64.93
2022-09-23T19:01:09.324Z,65.20
2022-09-23T19:03:38.333Z,65.52
2022-09-23T19:06:21.047Z,65.83
2022-09-23T19:08:56.418Z,66.34
2022-09-23T19:11:27.155Z,67.40
2022-09-23T19:14:18.549Z,66.80
2022-09-23T19:16:51.347Z,67.01
2022-09-23T19:19:19.583Z,66.96
2022-09-23T19:21:48.402Z,67.80
2022-09-23T19:24:23.038Z,67.89
2022-09-23T19:26:59.269Z,67.73
2022-09-23T19:29:28.983Z,67.81
2022-09-23T19:32:00.678Z,67.19
2022-09-23T19:34:30.781Z,66.61
2022-09-23T19:37:13.046Z,67.15
2022-09-23T19:39:45.014Z,66.92
2022-09-23T19:42:13.132Z,66.90
2022-09-23T19:44:41.392Z,66.86
2022-09-23T19:47:19.474Z,67.21
2022-09-23T19:49:50.641Z,67.20
2022-09-23T19:52:18.391Z,67.25
2022-09-23T19:54:48.955Z,66.99
2022-09-23T19:57:16.311Z,66.53
2022-09-23T19:59:43.659Z,66.17
2022-09-23T20:02:16.101Z,66.08
2022-09-23T20:04:43.596Z,66.74
2022-09-23T20:07:11.143Z,65.03
2022-09-23T20:09:47.533Z,64.46
2022-09-23T20:12:18.039Z,64.25
2022-09-23T20:14:45.793Z,63.99
2022-09-23T20:17:13.918Z,64.18
2022-09-23T20:19:47.790Z,63.93
2022-09-23T20:22:32.961Z,64.30
2022-09-23T20:25:05.133Z,63.78
2022-09-23T20:27:33.731Z,64.15
2022-09-23T20:30:03.544Z,63.97
2022-09-23T20:32:31.615Z,64.58
2022-09-23T20:34:59.299Z,65.37
2022-09-23T20:37:26.825Z,66.23
2022-09-23T20:39:54.398Z,66.11
2022-09-23T20:42:22.521Z,66.62
2022-09-23T20:44:50.487Z,67.48
2022-09-23T20:47:19.099Z,68.09
2022-09-23T20:49:47.043Z,68.60
2022-09-23T20:52:17.749Z,69.07
2022-09-23T20:54:45.118Z,69.40
2022-09-23T20:57:15.524Z,70.46
2022-09-23T20:59:45.968Z,71.13
2022-09-23T21:02:13.971Z,70.57
2022-09-23T21:04:41.622Z,70.27
2022-09-23T21:07:10.068Z,70.42
2022-09-23T21:09:37.284Z,70.39
2022-09-23T21:12:04.852Z,70.48
2022-09-23T21:14:33.483Z,70.60
2022-09-23T21:17:00.992Z,70.50
2022-09-23T21:19:28.746Z,70.36
2022-09-23T21:22:03.620Z,70.39
2022-09-23T21:25:12.159Z,70.07
2022-09-23T21:27:23.459Z,69.69
2022-09-23T21:29:57.405Z,69.91
2022-09-23T21:35:24.313Z,70.07
2022-09-23T21:38:03.447Z,70.56
2022-09-23T21:41:04.483Z,70.37
2022-09-23T21:43:40.866Z,70.55
2022-09-23T21:46:11.062Z,70.42
2022-09-23T21:49:03.943Z,71.01
2022-09-23T21:51:56.369Z,70.71
2022-09-23T21:54:27.124Z,70.29
2022-09-23T21:56:59.206Z,70.16
2022-09-23T21:59:46.423Z,70.38
2022-09-23T22:02:14.669Z,70.03
2022-09-23T22:04:45.823Z,69.67
2022-09-23T22:07:58.971Z,69.37
2022-09-23T22:10:27.294Z,69.62
2022-09-23T22:12:55.153Z,69.79
2022-09-23T22:15:23.823Z,69.58
2022-09-23T22:17:52.939Z,69.28
2022-09-23T22:20:21.379Z,68.48
2022-09-23T22:22:48.956Z,68.82
2022-09-23T22:25:21.868Z,68.60
2022-09-23T22:28:10.927Z,68.31
2022-09-23T22:31:05.773Z,68.04
2022-09-23T22:33:36.567Z,68.06
2022-09-23T22:36:11.758Z,67.60
2022-09-23T22:38:39.860Z,67.80
2022-09-23T22:41:07.903Z,67.59
2022-09-23T22:43:41.583Z,67.48
2022-09-23T22:46:09.693Z,67.87
2022-09-23T22:48:37.260Z,68.28
2022-09-23T22:51:06.213Z,68.32
2022-09-23T22:53:34.030Z,68.49
2022-09-23T22:56:07.108Z,68.05
2022-09-23T22:58:41.026Z,68.21
2022-09-23T23:01:11.594Z,68.50
2022-09-23T23:04:13.314Z,68.35
2022-09-23T23:06:55.736Z,68.71
2022-09-23T23:09:24.619Z,68.31
2022-09-23T23:12:09.901Z,68.84
2022-09-23T23:14:39.306Z,68.88
2022-09-23T23:17:08.084Z,68.65
2022-09-23T23:19:42.179Z,68.93
2022-09-23T23:22:09.764Z,68.90
2022-09-23T23:24:37.523Z,68.90
2022-09-23T23:27:05.505Z,69.18
2022-09-23T23:29:33.101Z,69.21
2022-09-23T23:32:01.577Z,69.72
2022-09-23T23:34:29.549Z,69.35
2022-09-23T23:36:57.657Z,70.03
2022-09-23T23:39:29.876Z,65.97
2022-09-23T23:41:58.953Z,67.47
2022-09-23T23:44:28.026Z,69.40
2022-09-23T23:46:56.504Z,72.07
2022-09-23T23:49:24.943Z,72.20
2022-09-23T23:51:54.272Z,72.39
2022-09-23T23:54:22.748Z,73.25
2022-09-23T23:56:51.503Z,73.27
2022-09-23T23:59:21.776Z,73.20
